Jamestown, ND

10:30 PM CDT on September 01, 2014 (GMT -0500)
Leapaldt Addition | Change Station
CLOSE
Current Station
Personal Weather Station
Location: Jamestown, ND
Elevation: 1486 ft
Nearby Weather Stations

Elev 1486 ft 46.93 °N, 98.69 °W | Updated 2 minutes ago

Clear
Clear
56.8 °F
Feels Like 56.8 °F
N
0.0
Wind Variable Wind from WNW

Today
High -- | Low -- °F
--% Chance of Precip.
Yesterday
High -- | Low -- °F
Precip. -- in
6:54 AM 8:14 PM
Waxing Crescent, 47% visible
Pressure 29.83 in
Visibility 10.0 miles
Clouds Clear
Dew Point 53 °F
Humidity 86%
Rainfall 0.00 in
Snow Depth Not available.
UV 0 out of 12
Pollen 9.30 out of 12
Air Quality Not available.
Flu Activity Not available.
METAR KJMS 020256Z AUTO 00000KT 10SM CLR 14/11 A2983 RMK AO2 SLP101 T01440106 53019

More Conditions Fewer Conditions

Pressure 29.83 in
Visibility 10.0 miles
Clouds Clear
Dew Point 53 °F
Humidity 86%
Rainfall 0.00 in
Snow Depth Not available.
UV 0 out of 12
Pollen 9.30 out of 12
Air Quality Not available.
Flu Activity Not available.
METAR KJMS 020256Z AUTO 00000KT 10SM CLR 14/11 A2983 RMK AO2 SLP101 T01440106 53019

More Conditions Fewer Conditions

10-Day Weather Forecast

Almanac

Astronomy

Sep. 01, 2014 Rise Set
Actual Time 6:54 AM CDT 8:14 PM CDT
Civil Twilight 6:22 AM CDT 8:45 PM CDT
Nautical Twilight 5:44 AM CDT 9:23 PM CDT
Astronomical Twilight 5:04 AM CDT 10:04 PM CDT
Moon 2:07 PM CDT (9/1) 11:50 PM CDT (9/1)
Length of Visible Light 14h 22m
Length of Day
13h 19m
Tomorrow will be 3m 15s shorter.
Waxing Crescent, 47% of the Moon is Illuminated
Today
Waxing Crescent
Sep 2
First Quarter
Sep 8
Full
Sep 15
Last Quarter
Sep 24
New

Today's Extremes

State Highs State Lows

Community

WunderPhotos

Upload Photos

1,749,555 photos uploaded!

WunderBlogs® & News

Nearby

Snow Depth

Station Depth Elevation
No new snow has been reported.

Earthquake Activity

City Distance Mag. Time & Date
No recent earthquake activity has been reported nearby.
Minimum magnitude displayed is 2.5.

Coastal Water Temperatures

Place Temperature
No Stations Reporting

Nearby Weather Stations